createdAt,value
2019-02-17T00:02:16.524Z,97.17
2019-02-17T00:04:47.333Z,100.50
2019-02-17T00:07:19.274Z,105.17
2019-02-17T00:09:49.999Z,110.20
2019-02-17T00:12:20.984Z,104.43
2019-02-17T00:14:51.424Z,106.37
2019-02-17T00:17:22.213Z,101.03
2019-02-17T00:19:53.059Z,81.00
2019-02-17T00:22:23.778Z,86.07
2019-02-17T00:24:54.984Z,86.60
2019-02-17T00:27:25.759Z,101.47
2019-02-17T00:29:56.389Z,85.57
2019-02-17T00:32:27.034Z,81.37
2019-02-17T00:34:57.513Z,93.50
2019-02-17T00:37:28.386Z,82.43
2019-02-17T00:39:59.218Z,70.73
2019-02-17T00:42:29.944Z,93.30
2019-02-17T00:45:00.993Z,94.97
2019-02-17T00:47:31.935Z,82.63
2019-02-17T00:50:02.525Z,102.63
2019-02-17T00:52:33.219Z,98.20
2019-02-17T00:55:03.928Z,108.17
2019-02-17T00:57:34.464Z,108.93
2019-02-17T01:00:05.314Z,108.63
2019-02-17T01:02:36.227Z,105.07
2019-02-17T01:05:07.186Z,109.53
2019-02-17T01:07:38.457Z,113.10
2019-02-17T01:10:09.302Z,119.33
2019-02-17T01:12:39.982Z,120.77
2019-02-17T01:15:11.432Z,116.57
2019-02-17T01:17:41.972Z,114.57
2019-02-17T01:20:12.487Z,111.70
2019-02-17T01:22:43.318Z,105.63
2019-02-17T01:25:13.871Z,101.00
2019-02-17T01:27:44.583Z,97.83
2019-02-17T01:30:16.126Z,96.67
2019-02-17T01:32:47.011Z,94.13
2019-02-17T01:35:17.631Z,94.97
2019-02-17T01:37:48.437Z,94.27
2019-02-17T01:40:19.182Z,91.07
2019-02-17T01:42:49.872Z,87.50
2019-02-17T01:45:20.408Z,84.60
2019-02-17T01:47:50.836Z,80.23
2019-02-17T01:50:21.613Z,76.47
2019-02-17T01:52:52.280Z,72.07
2019-02-17T01:55:23.090Z,75.20
2019-02-17T01:57:54.358Z,75.00
2019-02-17T02:00:25.355Z,75.63
2019-02-17T02:02:56.076Z,76.63
2019-02-17T02:05:27.266Z,77.67
2019-02-17T02:07:58.255Z,77.90
2019-02-17T02:10:29.116Z,78.80
2019-02-17T02:12:59.780Z,81.30
2019-02-17T02:15:30.885Z,85.47
2019-02-17T02:18:01.230Z,79.27
2019-02-17T02:20:32.049Z,74.90
2019-02-17T02:23:02.895Z,71.53
2019-02-17T02:25:33.494Z,74.93
2019-02-17T02:28:04.364Z,80.93
2019-02-17T02:30:35.020Z,87.13
2019-02-17T02:33:05.559Z,88.33
2019-02-17T02:35:36.388Z,85.40
2019-02-17T02:38:06.804Z,91.10
2019-02-17T02:40:37.220Z,88.77
2019-02-17T02:43:07.854Z,86.73
2019-02-17T02:45:38.600Z,84.47
2019-02-17T02:48:09.457Z,84.87
2019-02-17T02:50:39.882Z,79.70
2019-02-17T02:53:10.988Z,81.00
2019-02-17T02:55:41.607Z,82.30
2019-02-17T02:58:12.234Z,82.20
2019-02-17T03:00:43.073Z,81.63
2019-02-17T03:03:13.493Z,74.47
2019-02-17T03:05:55.076Z,58.77
2019-02-17T03:08:25.588Z,56.57
2019-02-17T03:10:56.138Z,58.23
2019-02-17T03:13:26.623Z,58.13
2019-02-17T03:15:57.238Z,58.60
2019-02-17T03:18:28.008Z,58.57
2019-02-17T03:20:58.602Z,56.17
2019-02-17T03:23:31.357Z,61.60
2019-02-17T03:26:01.835Z,68.67
2019-02-17T03:28:32.679Z,75.37
2019-02-17T03:31:03.309Z,62.03
2019-02-17T03:33:33.873Z,54.80
2019-02-17T03:36:04.333Z,59.03
2019-02-17T03:38:34.667Z,54.17
2019-02-17T03:41:05.487Z,52.17
2019-02-17T03:43:35.902Z,49.13
2019-02-17T03:46:06.442Z,45.33
2019-02-17T03:48:37.508Z,38.70
2019-02-17T03:51:08.128Z,29.53
2019-02-17T03:53:38.834Z,30.80
2019-02-17T03:56:10.178Z,29.87
2019-02-17T03:58:40.594Z,34.73
2019-02-17T04:01:11.320Z,35.00
2019-02-17T04:03:41.857Z,40.27
2019-02-17T04:06:12.537Z,35.90
2019-02-17T04:08:43.738Z,36.07
2019-02-17T04:11:14.236Z,32.20
2019-02-17T04:13:44.967Z,40.57
2019-02-17T04:16:15.757Z,47.47
2019-02-17T04:18:46.333Z,34.97
2019-02-17T04:21:17.062Z,47.13
2019-02-17T04:23:47.542Z,50.97
2019-02-17T04:26:18.265Z,52.47
2019-02-17T04:28:48.963Z,57.03
2019-02-17T04:31:19.627Z,48.40
2019-02-17T04:33:50.387Z,53.77
2019-02-17T04:36:21.097Z,44.10
2019-02-17T04:38:52.323Z,42.47
2019-02-17T04:41:22.843Z,46.03
2019-02-17T04:43:53.512Z,49.13
2019-02-17T04:46:24.073Z,46.60
2019-02-17T04:48:54.732Z,50.07
2019-02-17T04:51:25.428Z,44.33
2019-02-17T04:53:56.183Z,48.23
2019-02-17T04:56:26.872Z,50.27
2019-02-17T04:58:57.542Z,49.23
2019-02-17T05:01:28.313Z,57.00
2019-02-17T05:03:58.763Z,49.57
2019-02-17T05:06:29.267Z,46.13
2019-02-17T05:09:00.042Z,47.90
2019-02-17T05:11:31.943Z,45.00
2019-02-17T05:14:02.379Z,46.83
2019-02-17T05:16:34.298Z,52.40
2019-02-17T05:19:04.795Z,49.90
2019-02-17T05:21:35.442Z,51.43
2019-02-17T05:24:06.024Z,52.53
2019-02-17T05:26:36.679Z,57.60
2019-02-17T05:29:07.162Z,53.13
2019-02-17T05:31:37.733Z,56.00
2019-02-17T05:34:08.417Z,52.53
2019-02-17T05:36:38.923Z,53.70
2019-02-17T05:39:09.604Z,52.93
2019-02-17T05:41:41.618Z,53.87
2019-02-17T05:44:12.299Z,55.13
2019-02-17T05:46:42.891Z,57.30
2019-02-17T05:49:13.473Z,53.73
2019-02-17T05:51:44.003Z,49.67
2019-02-17T05:54:14.571Z,51.17
2019-02-17T05:56:45.098Z,50.10
2019-02-17T05:59:15.793Z,48.17
2019-02-17T06:01:46.687Z,51.60
2019-02-17T06:04:17.637Z,50.90
2019-02-17T06:06:48.270Z,44.93
2019-02-17T06:09:19.226Z,54.10
2019-02-17T06:11:49.548Z,49.10
2019-02-17T06:14:20.418Z,55.20
2019-02-17T06:16:51.014Z,47.67
2019-02-17T06:19:21.653Z,52.00
2019-02-17T06:21:52.343Z,51.47
2019-02-17T06:24:23.489Z,51.03
2019-02-17T06:26:53.988Z,53.67
2019-02-17T06:29:24.713Z,50.80
2019-02-17T06:31:55.599Z,51.87
2019-02-17T06:34:26.178Z,44.00
2019-02-17T06:36:56.893Z,45.20
2019-02-17T06:39:27.533Z,44.80
2019-02-17T06:41:58.039Z,42.37
2019-02-17T06:44:28.559Z,42.60
2019-02-17T06:47:02.003Z,49.17
2019-02-17T06:49:32.423Z,46.47
2019-02-17T06:52:02.923Z,45.57
2019-02-17T06:54:33.701Z,43.30
2019-02-17T06:57:10.826Z,40.93
2019-02-17T06:59:41.689Z,41.40
2019-02-17T07:02:12.346Z,46.33
2019-02-17T07:05:04.730Z,43.37
2019-02-17T07:07:35.639Z,41.33
2019-02-17T07:10:06.368Z,45.57
2019-02-17T07:12:37.234Z,47.90
2019-02-17T07:15:07.963Z,50.07
2019-02-17T07:17:38.886Z,52.73
2019-02-17T07:20:10.334Z,50.47
2019-02-17T07:22:41.044Z,53.60
2019-02-17T07:25:11.574Z,52.03
2019-02-17T07:27:42.474Z,48.00
2019-02-17T07:30:13.044Z,52.80
2019-02-17T07:32:43.789Z,47.97
2019-02-17T07:35:14.444Z,52.23
2019-02-17T07:37:45.059Z,60.07
2019-02-17T07:40:15.446Z,57.77
2019-02-17T07:42:46.213Z,63.63
2019-02-17T07:45:16.856Z,58.63
2019-02-17T07:47:47.332Z,57.07
2019-02-17T07:50:18.134Z,57.70
2019-02-17T07:52:48.714Z,58.77
2019-02-17T07:55:19.369Z,55.20
2019-02-17T07:57:51.361Z,60.07
2019-02-17T08:00:22.017Z,58.10
2019-02-17T08:02:52.904Z,61.87
2019-02-17T08:05:23.815Z,61.23
2019-02-17T08:07:54.689Z,57.83
2019-02-17T08:10:25.330Z,62.40
2019-02-17T08:12:56.390Z,55.23
2019-02-17T08:15:26.989Z,59.20
2019-02-17T08:17:57.827Z,59.50
2019-02-17T08:20:29.054Z,56.53
2019-02-17T08:22:59.624Z,54.23
2019-02-17T08:25:30.613Z,55.57
2019-02-17T08:28:01.205Z,54.40
2019-02-17T08:30:31.999Z,54.80
2019-02-17T08:33:02.664Z,53.70
2019-02-17T08:35:33.290Z,54.03
2019-02-17T08:38:04.096Z,52.93
2019-02-17T08:40:34.714Z,51.30
2019-02-17T08:43:05.228Z,54.43
2019-02-17T08:45:35.895Z,53.93
2019-02-17T08:48:06.514Z,47.67
2019-02-17T08:50:37.488Z,49.43
2019-02-17T08:53:08.569Z,44.63
2019-02-17T08:55:39.197Z,47.97
2019-02-17T08:58:10.055Z,45.90
2019-02-17T09:00:40.859Z,43.30
2019-02-17T09:03:11.464Z,42.70
2019-02-17T09:05:44.418Z,39.63
2019-02-17T09:08:15.019Z,38.77
2019-02-17T09:10:45.836Z,40.07
2019-02-17T09:13:18.474Z,36.73
2019-02-17T09:15:48.669Z,38.63
2019-02-17T09:18:19.235Z,37.43
2019-02-17T09:20:49.855Z,38.37
2019-02-17T09:23:20.450Z,39.83
2019-02-17T09:25:51.020Z,35.50
2019-02-17T09:28:21.549Z,39.23
2019-02-17T09:30:52.159Z,37.40
2019-02-17T09:33:22.815Z,37.67
2019-02-17T09:35:54.690Z,37.40
2019-02-17T09:38:25.240Z,35.73
2019-02-17T09:40:55.979Z,38.37
2019-02-17T09:43:26.559Z,36.13
2019-02-17T09:45:57.139Z,34.30
2019-02-17T09:48:27.718Z,36.97
2019-02-17T09:50:58.359Z,31.53
2019-02-17T09:53:29.094Z,35.77
2019-02-17T09:56:00.548Z,35.77
2019-02-17T09:58:31.041Z,34.23
2019-02-17T10:01:01.554Z,39.10
2019-02-17T10:03:32.087Z,38.93
2019-02-17T10:06:02.506Z,37.97
2019-02-17T10:08:32.951Z,39.43
2019-02-17T10:11:03.838Z,37.60
2019-02-17T10:13:34.674Z,41.30
2019-02-17T10:16:05.369Z,43.73
2019-02-17T10:18:36.184Z,39.43
2019-02-17T10:21:06.642Z,41.87
2019-02-17T10:23:37.229Z,41.00
2019-02-17T10:26:08.124Z,39.97
2019-02-17T10:28:42.397Z,40.87
2019-02-17T10:31:10.839Z,39.33
2019-02-17T10:33:41.414Z,39.77
2019-02-17T10:36:11.924Z,37.60
2019-02-17T10:38:42.561Z,34.63
2019-02-17T10:41:13.490Z,38.20
2019-02-17T10:43:44.390Z,37.97
2019-02-17T10:46:15.078Z,34.83
2019-02-17T10:48:45.695Z,34.03
2019-02-17T10:51:16.344Z,33.80
2019-02-17T10:53:46.958Z,32.70
2019-02-17T10:56:18.119Z,32.50
2019-02-17T10:58:48.646Z,33.77
2019-02-17T11:01:19.074Z,35.70
2019-02-17T11:04:06.945Z,36.30
2019-02-17T11:06:37.839Z,34.63
2019-02-17T11:09:24.598Z,32.77
2019-02-17T11:11:55.549Z,34.87
2019-02-17T11:14:27.991Z,36.07
2019-02-17T11:16:58.904Z,34.23
2019-02-17T11:19:29.966Z,32.70
2019-02-17T11:22:01.189Z,32.20
2019-02-17T11:24:31.879Z,35.80
2019-02-17T11:27:02.950Z,36.03
2019-02-17T11:29:34.296Z,34.17
2019-02-17T11:32:06.389Z,34.07
2019-02-17T11:34:37.465Z,34.03
2019-02-17T11:37:08.990Z,32.70
2019-02-17T11:39:40.239Z,35.47
2019-02-17T11:42:11.022Z,33.90
2019-02-17T11:44:42.900Z,33.57
2019-02-17T11:47:13.779Z,35.70
2019-02-17T11:49:44.761Z,34.37
2019-02-17T11:52:15.285Z,35.43
2019-02-17T11:54:47.631Z,37.27
2019-02-17T11:57:18.834Z,38.47
2019-02-17T11:59:49.679Z,39.10
2019-02-17T12:02:24.966Z,39.50
2019-02-17T12:04:52.719Z,37.97
2019-02-17T12:07:23.369Z,38.33
2019-02-17T12:09:53.949Z,39.93
2019-02-17T12:12:29.229Z,42.47
2019-02-17T12:15:00.041Z,42.03
2019-02-17T12:17:30.894Z,40.67
2019-02-17T12:20:19.929Z,40.60
2019-02-17T12:22:56.084Z,42.90
2019-02-17T12:25:32.484Z,40.40
2019-02-17T12:28:06.634Z,43.00
2019-02-17T12:30:38.129Z,43.80
2019-02-17T12:33:18.254Z,40.93
2019-02-17T12:35:41.194Z,40.83
2019-02-17T12:38:12.229Z,44.23
2019-02-17T12:40:42.919Z,43.50
2019-02-17T12:43:13.569Z,43.70
2019-02-17T12:45:44.358Z,42.30
2019-02-17T12:48:14.989Z,46.93
2019-02-17T12:50:45.790Z,45.20
2019-02-17T12:53:16.738Z,46.60
2019-02-17T12:55:47.569Z,49.67
2019-02-17T12:58:20.133Z,49.63
2019-02-17T13:00:51.032Z,47.77
2019-02-17T13:03:28.225Z,50.47
2019-02-17T13:05:54.100Z,51.50
2019-02-17T13:08:24.899Z,49.07
2019-02-17T13:10:55.504Z,53.27
2019-02-17T13:13:26.136Z,52.93
2019-02-17T13:15:57.145Z,56.27
2019-02-17T13:18:27.869Z,52.07
2019-02-17T13:20:58.354Z,52.03
2019-02-17T13:23:28.999Z,49.80
2019-02-17T13:25:59.759Z,52.30
2019-02-17T13:28:30.269Z,52.00
2019-02-17T13:31:01.054Z,53.40
2019-02-17T13:33:38.851Z,51.60
2019-02-17T13:36:03.924Z,53.47
2019-02-17T13:38:34.595Z,55.57
2019-02-17T13:41:05.300Z,52.77
2019-02-17T13:43:36.199Z,50.20
2019-02-17T13:46:07.195Z,53.03
2019-02-17T13:48:37.924Z,52.80
2019-02-17T13:51:08.504Z,53.50
2019-02-17T13:53:39.400Z,51.27
2019-02-17T13:56:10.039Z,53.33
2019-02-17T13:58:40.877Z,55.33
2019-02-17T14:01:11.657Z,52.53
2019-02-17T14:03:48.599Z,52.23
2019-02-17T14:06:14.750Z,48.90
2019-02-17T14:08:45.544Z,49.63
2019-02-17T14:11:16.050Z,50.83
2019-02-17T14:13:46.793Z,53.50
2019-02-17T14:16:17.514Z,52.33
2019-02-17T14:18:47.965Z,52.53
2019-02-17T14:21:18.620Z,51.63
2019-02-17T14:23:49.569Z,54.10
2019-02-17T14:26:20.234Z,54.63
2019-02-17T14:28:50.784Z,52.87
2019-02-17T14:31:21.556Z,51.93
2019-02-17T14:33:58.327Z,55.13
2019-02-17T14:36:24.269Z,53.93
2019-02-17T14:38:54.800Z,55.17
2019-02-17T14:41:25.334Z,50.57
2019-02-17T14:43:55.951Z,52.57
2019-02-17T14:46:26.654Z,52.33
2019-02-17T14:48:57.244Z,51.97
2019-02-17T14:51:27.774Z,50.73
2019-02-17T14:53:58.504Z,49.13
2019-02-17T14:56:29.510Z,48.60
2019-02-17T14:59:02.394Z,48.93
2019-02-17T15:01:32.849Z,50.73
2019-02-17T15:04:08.745Z,51.27
2019-02-17T15:06:35.725Z,48.83
2019-02-17T15:09:08.393Z,52.93
2019-02-17T15:11:38.989Z,52.13
2019-02-17T15:14:09.738Z,50.87
2019-02-17T15:16:40.457Z,51.53
2019-02-17T15:19:10.894Z,54.53
2019-02-17T15:21:41.544Z,51.03
2019-02-17T15:24:12.575Z,51.87
2019-02-17T15:26:43.079Z,50.53
2019-02-17T15:29:13.619Z,52.33
2019-02-17T15:31:44.427Z,50.37
2019-02-17T15:34:18.706Z,50.83
2019-02-17T15:36:47.645Z,49.40
2019-02-17T15:39:18.360Z,50.30
2019-02-17T15:41:48.904Z,50.03
2019-02-17T15:44:19.664Z,49.63
2019-02-17T15:46:50.244Z,49.23
2019-02-17T15:49:20.974Z,51.00
2019-02-17T15:51:51.823Z,49.43
2019-02-17T15:54:22.579Z,50.90
2019-02-17T15:56:54.037Z,46.83
2019-02-17T15:59:25.581Z,47.30
2019-02-17T16:01:57.239Z,48.10
2019-02-17T16:04:28.793Z,49.50
2019-02-17T16:06:59.624Z,48.87
2019-02-17T16:09:30.201Z,49.43
2019-02-17T16:12:00.724Z,49.23
2019-02-17T16:14:31.469Z,50.73
2019-02-17T16:17:02.044Z,52.07
2019-02-17T16:19:32.565Z,48.67
2019-02-17T16:22:03.304Z,49.20
2019-02-17T16:24:33.927Z,49.60
2019-02-17T16:27:04.620Z,49.37
2019-02-17T16:29:35.209Z,49.67
2019-02-17T16:32:05.884Z,49.70
2019-02-17T16:34:38.721Z,48.80
2019-02-17T16:37:09.069Z,47.73
2019-02-17T16:39:39.827Z,47.07
2019-02-17T16:42:10.634Z,48.93
2019-02-17T16:44:41.476Z,49.73
2019-02-17T16:47:12.069Z,48.30
2019-02-17T16:49:42.739Z,47.53
2019-02-17T16:52:13.619Z,49.50
2019-02-17T16:54:44.279Z,50.93
2019-02-17T16:57:14.865Z,49.93
2019-02-17T16:59:45.619Z,49.37
2019-02-17T17:02:16.184Z,49.30
2019-02-17T17:04:48.874Z,50.53
2019-02-17T17:07:19.015Z,50.20
2019-02-17T17:09:49.554Z,49.57
2019-02-17T17:12:20.174Z,49.13
2019-02-17T17:14:50.969Z,50.77
2019-02-17T17:17:21.810Z,48.60
2019-02-17T17:19:52.639Z,50.47
2019-02-17T17:22:23.815Z,49.53
2019-02-17T17:24:54.614Z,49.00
2019-02-17T17:27:25.371Z,49.47
2019-02-17T17:29:56.274Z,49.27
2019-02-17T17:32:27.199Z,46.93
2019-02-17T17:34:59.164Z,49.47
2019-02-17T17:37:30.186Z,49.73
2019-02-17T17:40:01.016Z,47.60
2019-02-17T17:42:31.936Z,48.47
2019-02-17T17:45:02.969Z,47.53
2019-02-17T17:47:33.635Z,46.23
2019-02-17T17:50:04.199Z,48.23
2019-02-17T17:52:35.235Z,47.80
2019-02-17T17:55:25.919Z,49.60
2019-02-17T17:57:56.919Z,49.27
2019-02-17T18:00:28.785Z,49.33
2019-02-17T18:03:28.802Z,49.97
2019-02-17T18:06:02.770Z,52.40
2019-02-17T18:08:45.794Z,53.43
2019-02-17T18:11:31.470Z,62.23
2019-02-17T18:14:03.354Z,57.47
2019-02-17T18:17:17.159Z,56.40
2019-02-17T18:19:47.845Z,55.93
2019-02-17T18:22:18.523Z,55.03
2019-02-17T18:24:49.094Z,52.70
2019-02-17T18:27:20.475Z,52.07
2019-02-17T18:29:51.140Z,50.90
2019-02-17T18:32:22.765Z,59.93
2019-02-17T18:35:19.637Z,59.13
2019-02-17T18:38:29.459Z,51.27
2019-02-17T18:42:01.506Z,64.27
2019-02-17T18:44:32.369Z,58.33
2019-02-17T18:47:04.170Z,52.87
2019-02-17T18:50:00.315Z,45.97
2019-02-17T18:53:19.179Z,50.53
2019-02-17T18:56:31.310Z,48.67
2019-02-17T18:59:24.604Z,46.10
2019-02-17T19:02:34.459Z,47.13
2019-02-17T19:05:58.584Z,49.20
2019-02-17T19:08:29.304Z,48.70
2019-02-17T19:10:59.944Z,50.17
2019-02-17T19:13:30.774Z,47.73
2019-02-17T19:16:01.704Z,49.10
2019-02-17T19:18:32.744Z,47.10
2019-02-17T19:21:03.524Z,46.17
2019-02-17T19:23:34.026Z,44.93
2019-02-17T19:26:04.834Z,46.73
2019-02-17T19:28:35.362Z,48.00
2019-02-17T19:32:06.876Z,49.60
2019-02-17T19:34:55.794Z,49.33
2019-02-17T19:37:26.844Z,47.97
2019-02-17T19:40:45.784Z,43.83
2019-02-17T19:43:55.296Z,54.43
2019-02-17T19:47:23.609Z,47.10
2019-02-17T19:49:54.625Z,49.10
2019-02-17T19:52:25.430Z,49.93
2019-02-17T19:54:56.244Z,48.53
2019-02-17T19:57:27.009Z,47.87
2019-02-17T19:59:58.116Z,45.90
2019-02-17T20:02:50.944Z,43.87
2019-02-17T20:05:24.665Z,45.27
2019-02-17T20:08:02.927Z,41.77
2019-02-17T20:11:19.977Z,45.07
2019-02-17T20:14:14.249Z,41.70
2019-02-17T20:16:45.824Z,41.37
2019-02-17T20:19:16.639Z,40.40
2019-02-17T20:21:47.987Z,34.27
2019-02-17T20:24:18.988Z,34.57
2019-02-17T20:27:24.419Z,34.53
2019-02-17T20:29:56.024Z,32.80
2019-02-17T20:32:37.839Z,32.10
2019-02-17T20:35:38.506Z,33.80
2019-02-17T20:38:50.616Z,32.83
2019-02-17T20:41:51.342Z,33.70
2019-02-17T20:44:36.096Z,34.80
2019-02-17T20:50:49.195Z,31.23
2019-02-17T20:53:33.071Z,29.70
2019-02-17T20:59:52.191Z,30.53
2019-02-17T21:02:29.044Z,30.50
2019-02-17T21:05:24.941Z,28.40
2019-02-17T21:08:00.744Z,30.40
2019-02-17T21:10:31.373Z,31.17
2019-02-17T21:13:02.675Z,30.00
2019-02-17T21:19:02.756Z,25.83
2019-02-17T21:21:33.553Z,25.57
2019-02-17T21:24:04.361Z,25.47
2019-02-17T21:26:35.254Z,25.60
2019-02-17T21:29:06.055Z,27.00
2019-02-17T21:31:36.959Z,29.47
2019-02-17T21:34:07.931Z,30.93
2019-02-17T21:36:38.710Z,27.23
2019-02-17T21:39:09.524Z,31.53
2019-02-17T21:41:40.422Z,30.10
2019-02-17T21:44:11.220Z,31.23
2019-02-17T21:46:41.994Z,28.73
2019-02-17T21:49:12.942Z,30.77
2019-02-17T21:51:43.625Z,28.27
2019-02-17T21:54:14.369Z,28.37
2019-02-17T21:56:45.386Z,30.13
2019-02-17T21:59:16.034Z,31.80
2019-02-17T22:01:47.079Z,30.60
2019-02-17T22:04:17.959Z,26.93
2019-02-17T22:06:48.645Z,26.83
2019-02-17T22:09:19.222Z,29.23
2019-02-17T22:11:50.123Z,30.63
2019-02-17T22:14:20.694Z,30.50
2019-02-17T22:16:51.359Z,28.60
2019-02-17T22:19:22.097Z,28.63
2019-02-17T22:21:52.844Z,29.80
2019-02-17T22:24:23.714Z,31.03
2019-02-17T22:26:54.621Z,29.40
2019-02-17T22:29:25.186Z,27.93
2019-02-17T22:31:55.844Z,29.03
2019-02-17T22:34:26.808Z,28.67
2019-02-17T22:36:57.334Z,30.70
2019-02-17T22:39:28.094Z,28.67
2019-02-17T22:41:58.999Z,32.77
2019-02-17T22:44:29.796Z,34.73
2019-02-17T22:47:00.559Z,32.73
2019-02-17T22:49:31.530Z,31.13
2019-02-17T22:52:02.120Z,32.47
2019-02-17T22:55:37.144Z,33.90
2019-02-17T22:58:03.798Z,30.43
2019-02-17T23:00:48.784Z,33.33
2019-02-17T23:03:19.448Z,33.00
2019-02-17T23:05:50.269Z,34.47
2019-02-17T23:08:21.061Z,34.30
2019-02-17T23:10:51.734Z,35.40
2019-02-17T23:13:22.429Z,36.67
2019-02-17T23:15:53.020Z,35.57
2019-02-17T23:18:23.444Z,34.27
2019-02-17T23:20:53.959Z,34.33
2019-02-17T23:23:24.504Z,33.93
2019-02-17T23:25:55.083Z,36.37
2019-02-17T23:28:25.589Z,36.30
2019-02-17T23:30:56.219Z,35.20
2019-02-17T23:33:26.715Z,34.67
2019-02-17T23:35:57.093Z,33.83
2019-02-17T23:38:27.543Z,33.67
2019-02-17T23:40:58.023Z,33.97
2019-02-17T23:43:28.499Z,34.10
2019-02-17T23:45:59.214Z,34.93
2019-02-17T23:48:29.693Z,34.23
2019-02-17T23:51:00.107Z,33.83
2019-02-17T23:53:30.679Z,33.87
2019-02-17T23:56:01.283Z,35.00
2019-02-17T23:58:31.640Z,33.13
